createdAt,value
2019-03-02T00:00:40.089Z,10.80
2019-03-02T00:03:09.512Z,10.80
2019-03-02T00:05:38.971Z,10.90
2019-03-02T00:08:08.564Z,10.90
2019-03-02T00:10:40.753Z,10.90
2019-03-02T00:13:10.095Z,10.90
2019-03-02T00:15:42.252Z,10.90
2019-03-02T00:18:11.432Z,10.90
2019-03-02T00:20:43.823Z,10.90
2019-03-02T00:23:15.831Z,10.90
2019-03-02T00:25:51.673Z,10.90
2019-03-02T00:28:21.287Z,10.90
2019-03-02T00:30:50.723Z,11.00
2019-03-02T00:33:21.183Z,10.90
2019-03-02T00:35:50.909Z,11.00
2019-03-02T00:38:20.484Z,10.90
2019-03-02T00:40:49.900Z,11.00
2019-03-02T00:43:20.113Z,10.90
2019-03-02T00:45:51.833Z,10.90
2019-03-02T00:48:21.230Z,10.90
2019-03-02T00:50:52.124Z,10.90
2019-03-02T00:53:21.778Z,10.90
2019-03-02T00:55:51.460Z,10.90
2019-03-02T00:58:20.667Z,10.90
2019-03-02T01:00:53.293Z,10.90
2019-03-02T01:03:22.023Z,10.90
2019-03-02T01:06:03.374Z,10.90
2019-03-02T01:08:35.032Z,10.90
2019-03-02T01:11:05.571Z,10.90
2019-03-02T01:13:35.031Z,10.90
2019-03-02T01:16:04.742Z,10.80
2019-03-02T01:18:34.003Z,10.80
2019-03-02T01:21:04.969Z,10.80
2019-03-02T01:23:35.269Z,10.70
2019-03-02T01:26:04.631Z,10.70
2019-03-02T01:28:34.809Z,10.70
2019-03-02T01:31:08.400Z,10.70
2019-03-02T01:33:38.015Z,10.70
2019-03-02T01:36:18.348Z,10.60
2019-03-02T01:39:08.552Z,10.60
2019-03-02T01:41:44.292Z,10.60
2019-03-02T01:44:16.294Z,10.50
2019-03-02T01:46:44.713Z,10.50
2019-03-02T01:49:13.892Z,10.60
2019-03-02T01:51:43.021Z,10.60
2019-03-02T01:54:12.427Z,10.60
2019-03-02T01:56:42.718Z,10.60
2019-03-02T01:59:11.793Z,10.50
2019-03-02T02:01:41.282Z,10.50
2019-03-02T02:04:10.726Z,10.50
2019-03-02T02:06:42.837Z,10.50
2019-03-02T02:09:11.108Z,10.60
2019-03-02T02:11:40.531Z,10.60
2019-03-02T02:14:10.035Z,10.60
2019-03-02T02:16:41.814Z,10.60
2019-03-02T02:19:10.339Z,10.50
2019-03-02T02:21:39.751Z,10.50
2019-03-02T02:24:09.253Z,10.50
2019-03-02T02:26:38.331Z,10.50
2019-03-02T02:29:08.278Z,10.60
2019-03-02T02:31:44.535Z,10.60
2019-03-02T02:34:09.963Z,10.50
2019-03-02T02:36:39.069Z,10.50
2019-03-02T02:39:10.314Z,10.50
2019-03-02T02:41:39.348Z,10.50
2019-03-02T02:44:08.983Z,10.50
2019-03-02T02:46:39.141Z,10.60
2019-03-02T02:49:10.378Z,10.60
2019-03-02T02:51:38.776Z,10.60
2019-03-02T02:54:07.860Z,10.60
2019-03-02T02:56:37.565Z,10.70
2019-03-02T02:59:06.774Z,10.70
2019-03-02T03:01:35.835Z,10.70
2019-03-02T03:04:04.920Z,10.70
2019-03-02T03:06:34.428Z,10.70
2019-03-02T03:09:09.718Z,10.70
2019-03-02T03:11:43.583Z,10.70
2019-03-02T03:14:07.515Z,10.70
2019-03-02T03:16:36.952Z,10.70
2019-03-02T03:19:06.279Z,10.70
2019-03-02T03:21:36.330Z,10.70
2019-03-02T03:24:05.477Z,10.80
2019-03-02T03:26:35.263Z,10.80
2019-03-02T03:29:09.665Z,10.80
2019-03-02T03:31:36.170Z,10.80
2019-03-02T03:34:05.492Z,10.80
2019-03-02T03:36:35.514Z,10.70
2019-03-02T03:39:07.247Z,10.70
2019-03-02T03:41:42.812Z,10.70
2019-03-02T03:44:08.914Z,10.70
2019-03-02T03:46:38.159Z,10.60
2019-03-02T03:49:07.607Z,10.60
2019-03-02T03:51:36.783Z,10.60
2019-03-02T03:54:06.909Z,10.60
2019-03-02T03:56:37.598Z,10.60
2019-03-02T03:59:07.757Z,10.60
2019-03-02T04:01:37.288Z,10.60
2019-03-02T04:04:06.895Z,10.60
2019-03-02T04:06:36.190Z,10.60
2019-03-02T04:09:08.287Z,10.60
2019-03-02T04:11:37.883Z,10.60
2019-03-02T04:14:07.740Z,10.60
2019-03-02T04:16:37.021Z,10.60
2019-03-02T04:19:06.777Z,10.60
2019-03-02T04:21:39.061Z,10.60
2019-03-02T04:24:08.197Z,10.60
2019-03-02T04:26:38.587Z,10.60
2019-03-02T04:29:09.902Z,10.70
2019-03-02T04:31:38.698Z,10.60
2019-03-02T04:34:07.704Z,10.70
2019-03-02T04:36:36.766Z,10.60
2019-03-02T04:39:11.990Z,10.60
2019-03-02T04:41:39.618Z,10.70
2019-03-02T04:44:09.598Z,10.60
2019-03-02T04:46:39.210Z,10.60
2019-03-02T04:49:10.921Z,10.60
2019-03-02T04:51:40.194Z,10.60
2019-03-02T04:54:10.092Z,10.60
2019-03-02T04:56:39.174Z,10.60
2019-03-02T04:59:08.275Z,10.60
2019-03-02T05:01:38.999Z,10.60
2019-03-02T05:04:08.170Z,10.60
2019-03-02T05:06:37.676Z,10.60
2019-03-02T05:09:08.079Z,10.60
2019-03-02T05:11:39.314Z,10.70
2019-03-02T05:14:08.959Z,10.70
2019-03-02T05:16:39.082Z,10.70
2019-03-02T05:19:08.653Z,10.70
2019-03-02T05:21:39.896Z,10.70
2019-03-02T05:24:09.291Z,10.70
2019-03-02T05:26:39.306Z,10.70
2019-03-02T05:29:08.801Z,10.70
2019-03-02T05:31:40.880Z,10.70
2019-03-02T05:34:09.000Z,10.70
2019-03-02T05:36:38.497Z,10.70
2019-03-02T05:39:07.990Z,10.70
2019-03-02T05:41:39.170Z,10.70
2019-03-02T05:44:08.472Z,10.70
2019-03-02T05:46:37.563Z,10.70
2019-03-02T05:49:06.689Z,10.70
2019-03-02T05:51:39.005Z,10.70
2019-03-02T05:54:07.610Z,10.70
2019-03-02T05:56:36.708Z,10.60
2019-03-02T05:59:05.832Z,10.60
2019-03-02T06:01:36.695Z,10.60
2019-03-02T06:04:06.270Z,10.60
2019-03-02T06:06:35.881Z,10.60
2019-03-02T06:09:13.932Z,10.60
2019-03-02T06:11:40.933Z,10.60
2019-03-02T06:14:10.611Z,10.60
2019-03-02T06:16:40.185Z,10.60
2019-03-02T06:19:10.063Z,10.60
2019-03-02T06:21:39.125Z,10.60
2019-03-02T06:24:08.495Z,10.60
2019-03-02T06:26:37.601Z,10.60
2019-03-02T06:29:06.737Z,10.60
2019-03-02T06:31:35.830Z,10.60
2019-03-02T06:34:05.207Z,10.70
2019-03-02T06:36:34.276Z,10.70
2019-03-02T06:39:07.923Z,10.70
2019-03-02T06:41:35.773Z,10.70
2019-03-02T06:44:04.853Z,10.70
2019-03-02T06:46:33.991Z,10.70
2019-03-02T06:49:03.141Z,10.70
2019-03-02T06:51:32.494Z,10.70
2019-03-02T06:54:01.689Z,10.70
2019-03-02T06:56:32.588Z,10.70
2019-03-02T06:59:04.211Z,10.70
2019-03-02T07:01:33.760Z,10.70
2019-03-02T07:04:02.692Z,10.70
2019-03-02T07:06:34.845Z,10.70
2019-03-02T07:09:09.574Z,10.70
2019-03-02T07:11:39.776Z,10.70
2019-03-02T07:14:09.422Z,10.80
2019-03-02T07:16:38.541Z,10.80
2019-03-02T07:19:38.781Z,10.70
2019-03-02T07:22:07.882Z,10.70
2019-03-02T07:24:38.973Z,10.70
2019-03-02T07:27:08.731Z,10.70
2019-03-02T07:29:39.670Z,10.70
2019-03-02T07:32:08.805Z,10.80
2019-03-02T07:34:40.794Z,10.80
2019-03-02T07:37:18.304Z,10.80
2019-03-02T07:39:53.820Z,10.80
2019-03-02T07:42:24.662Z,10.80
2019-03-02T07:44:54.995Z,10.80
2019-03-02T07:47:25.369Z,10.90
2019-03-02T07:49:54.549Z,10.90
2019-03-02T07:52:24.004Z,10.90
2019-03-02T07:54:58.345Z,10.90
2019-03-02T07:57:24.204Z,11.00
2019-03-02T07:59:53.378Z,11.10
2019-03-02T08:02:25.793Z,11.10
2019-03-02T08:04:55.520Z,11.10
2019-03-02T08:07:24.549Z,11.20
2019-03-02T08:09:53.656Z,11.10
2019-03-02T08:12:24.932Z,11.10
2019-03-02T08:14:54.530Z,11.10
2019-03-02T08:17:23.657Z,11.00
2019-03-02T08:19:52.879Z,11.00
2019-03-02T08:22:22.573Z,11.00
2019-03-02T08:24:51.634Z,11.00
2019-03-02T08:27:20.745Z,11.10
2019-03-02T08:29:50.273Z,11.10
2019-03-02T08:32:21.158Z,11.20
2019-03-02T08:34:51.796Z,11.20
2019-03-02T08:37:22.938Z,11.30
2019-03-02T08:39:52.453Z,11.40
2019-03-02T08:42:21.754Z,11.50
2019-03-02T08:44:54.016Z,11.50
2019-03-02T08:47:32.817Z,11.60
2019-03-02T08:50:02.115Z,11.60
2019-03-02T08:52:31.515Z,11.60
2019-03-02T08:55:00.619Z,11.50
2019-03-02T08:57:30.021Z,11.60
2019-03-02T08:59:59.397Z,11.60
2019-03-02T09:02:28.841Z,11.70
2019-03-02T09:04:58.217Z,11.80
2019-03-02T09:07:27.361Z,11.80
2019-03-02T09:09:56.790Z,11.80
2019-03-02T09:12:25.868Z,11.80
2019-03-02T09:14:55.193Z,11.80
2019-03-02T09:17:24.509Z,11.90
2019-03-02T09:20:13.411Z,12.00
2019-03-02T09:22:43.269Z,12.10
2019-03-02T09:25:14.555Z,12.30
2019-03-02T09:27:43.689Z,12.40
2019-03-02T09:30:15.046Z,12.50
2019-03-02T09:32:47.031Z,12.60
2019-03-02T09:35:16.390Z,12.60
2019-03-02T09:37:46.982Z,12.50
2019-03-02T09:40:16.310Z,12.50
2019-03-02T09:42:46.172Z,12.50
2019-03-02T09:45:16.266Z,12.50
2019-03-02T09:47:47.621Z,12.60
2019-03-02T09:50:16.717Z,12.70
2019-03-02T09:52:46.440Z,12.80
2019-03-02T09:55:18.440Z,13.00
2019-03-02T09:57:48.358Z,13.20
2019-03-02T10:00:23.902Z,13.20
2019-03-02T10:02:53.556Z,13.30
2019-03-02T10:05:22.766Z,13.30
2019-03-02T10:07:52.811Z,13.30
2019-03-02T10:10:25.154Z,13.30
2019-03-02T10:12:53.600Z,13.30
2019-03-02T10:15:23.098Z,13.30
2019-03-02T10:17:52.105Z,13.20
2019-03-02T10:20:21.260Z,13.20
2019-03-02T10:22:50.618Z,13.20
2019-03-02T10:25:20.348Z,13.30
2019-03-02T10:27:49.803Z,13.30
2019-03-02T10:30:22.125Z,13.40
2019-03-02T10:32:51.884Z,13.60
2019-03-02T10:35:21.367Z,13.80
2019-03-02T10:37:50.440Z,13.90
2019-03-02T10:40:19.634Z,13.90
2019-03-02T10:42:49.237Z,14.00
2019-03-02T10:45:18.365Z,14.10
2019-03-02T10:47:47.544Z,14.20
2019-03-02T10:50:19.623Z,14.30
2019-03-02T10:52:49.944Z,14.40
2019-03-02T10:55:20.043Z,14.50
2019-03-02T10:57:49.260Z,14.60
2019-03-02T11:00:25.661Z,14.70
2019-03-02T11:02:56.038Z,14.90
2019-03-02T11:05:52.929Z,15.10
2019-03-02T11:08:39.598Z,15.20
2019-03-02T11:11:25.804Z,15.50
2019-03-02T11:14:18.290Z,15.60
2019-03-02T11:17:06.719Z,15.90
2019-03-02T11:19:53.568Z,16.10
2019-03-02T11:22:48.046Z,16.10
2019-03-02T11:25:42.285Z,16.20
2019-03-02T11:28:20.820Z,16.30
2019-03-02T11:31:18.241Z,16.30
2019-03-02T11:34:15.418Z,16.30
2019-03-02T11:37:05.294Z,16.30
2019-03-02T11:40:08.486Z,16.30
2019-03-02T11:43:04.926Z,16.40
2019-03-02T11:45:56.484Z,16.50
2019-03-02T11:48:41.224Z,16.60
2019-03-02T11:51:33.331Z,16.80
2019-03-02T11:54:28.806Z,16.90
2019-03-02T11:57:17.761Z,17.00
2019-03-02T12:00:07.000Z,17.10
2019-03-02T12:02:54.043Z,17.20
2019-03-02T12:05:40.873Z,17.20
2019-03-02T12:08:35.730Z,17.30
2019-03-02T12:11:27.715Z,17.40
2019-03-02T12:14:21.319Z,17.40
2019-03-02T12:17:00.186Z,17.40
2019-03-02T12:19:51.122Z,17.30
2019-03-02T12:22:57.727Z,17.30
2019-03-02T12:25:45.385Z,17.30
2019-03-02T12:28:40.583Z,17.20
2019-03-02T12:31:28.092Z,17.20
2019-03-02T12:34:21.313Z,17.20
2019-03-02T12:37:09.765Z,17.10
2019-03-02T12:39:48.690Z,17.10
2019-03-02T12:42:52.634Z,17.00
2019-03-02T12:45:35.087Z,17.00
2019-03-02T12:48:35.465Z,17.10
2019-03-02T12:51:19.643Z,17.10
2019-03-02T12:53:55.549Z,17.10
2019-03-02T12:56:42.648Z,17.00
2019-03-02T12:59:28.225Z,17.00
2019-03-02T13:02:17.608Z,17.00
2019-03-02T13:05:12.641Z,16.80
2019-03-02T13:07:51.725Z,16.80
2019-03-02T13:10:35.271Z,16.90
2019-03-02T13:13:26.643Z,17.00
2019-03-02T13:16:19.848Z,17.20
2019-03-02T13:19:08.719Z,17.40
2019-03-02T13:22:03.771Z,17.50
2019-03-02T13:24:57.766Z,18.60
2019-03-02T13:27:42.575Z,17.60
2019-03-02T13:30:19.955Z,17.50
2019-03-02T13:33:01.114Z,17.30
2019-03-02T13:35:42.113Z,17.20
2019-03-02T13:38:49.845Z,17.20
2019-03-02T13:41:30.332Z,17.10
2019-03-02T13:44:34.711Z,17.00
2019-03-02T13:47:44.978Z,16.90
2019-03-02T13:50:34.850Z,16.80
2019-03-02T13:53:15.868Z,16.70
2019-03-02T13:55:51.407Z,16.60
2019-03-02T13:58:38.421Z,16.50
2019-03-02T14:01:25.234Z,16.40
2019-03-02T14:04:11.020Z,16.40
2019-03-02T14:07:05.955Z,16.40
2019-03-02T14:09:58.585Z,16.40
2019-03-02T14:13:02.196Z,16.50
2019-03-02T14:16:02.830Z,16.50
2019-03-02T14:18:52.473Z,16.40
2019-03-02T14:21:42.727Z,16.40
2019-03-02T14:24:37.722Z,16.40
2019-03-02T14:27:28.984Z,16.30
2019-03-02T14:30:29.149Z,16.30
2019-03-02T14:33:16.523Z,16.20
2019-03-02T14:36:04.893Z,16.10
2019-03-02T14:38:43.692Z,16.10
2019-03-02T14:41:30.045Z,16.00
2019-03-02T14:44:21.409Z,15.90
2019-03-02T14:46:59.993Z,15.80
2019-03-02T14:49:46.744Z,15.80
2019-03-02T14:52:36.812Z,15.70
2019-03-02T14:55:34.939Z,15.70
2019-03-02T14:58:13.879Z,15.70
2019-03-02T15:01:02.659Z,15.60
2019-03-02T15:03:58.116Z,15.50
2019-03-02T15:06:55.266Z,15.50
2019-03-02T15:09:38.077Z,15.40
2019-03-02T15:12:29.969Z,15.40
2019-03-02T15:15:22.580Z,15.30
2019-03-02T15:18:05.358Z,15.30
2019-03-02T15:20:53.510Z,15.20
2019-03-02T15:23:38.852Z,15.10
2019-03-02T15:26:15.444Z,15.00
2019-03-02T15:29:01.362Z,14.90
2019-03-02T15:31:39.227Z,14.90
2019-03-02T15:34:16.964Z,14.80
2019-03-02T15:37:24.303Z,14.80
2019-03-02T15:40:16.523Z,14.80
2019-03-02T15:43:16.746Z,14.80
2019-03-02T15:45:58.682Z,14.80
2019-03-02T15:48:41.886Z,14.80
2019-03-02T15:51:39.231Z,14.80
2019-03-02T15:54:32.089Z,14.90
2019-03-02T15:57:19.291Z,14.80
2019-03-02T15:59:59.142Z,14.80
2019-03-02T16:02:42.186Z,14.80
2019-03-02T16:05:21.135Z,14.70
2019-03-02T16:08:02.878Z,14.70
2019-03-02T16:10:51.467Z,14.70
2019-03-02T16:13:38.618Z,14.70
2019-03-02T16:16:34.983Z,14.70
2019-03-02T16:19:13.511Z,14.70
2019-03-02T16:22:11.236Z,14.60
2019-03-02T16:25:15.367Z,14.60
2019-03-02T16:27:58.107Z,14.60
2019-03-02T16:30:39.092Z,14.60
2019-03-02T16:33:33.762Z,14.50
2019-03-02T16:36:22.071Z,14.60
2019-03-02T16:39:19.457Z,14.50
2019-03-02T16:42:07.178Z,14.50
2019-03-02T16:44:59.624Z,14.40
2019-03-02T16:47:53.698Z,14.30
2019-03-02T16:50:41.060Z,14.20
2019-03-02T16:53:29.595Z,14.10
2019-03-02T16:56:21.356Z,14.10
2019-03-02T16:59:07.022Z,14.00
2019-03-02T17:01:46.316Z,13.80
2019-03-02T17:04:43.796Z,13.80
2019-03-02T17:07:32.326Z,13.70
2019-03-02T17:10:08.729Z,13.70
2019-03-02T17:12:58.879Z,13.70
2019-03-02T17:15:40.056Z,13.70
2019-03-02T17:18:29.582Z,13.70
2019-03-02T17:21:16.574Z,13.70
2019-03-02T17:24:01.128Z,13.60
2019-03-02T17:26:55.832Z,13.70
2019-03-02T17:29:39.496Z,13.60
2019-03-02T17:32:28.066Z,13.60
2019-03-02T17:35:20.766Z,13.60
2019-03-02T17:38:01.608Z,13.60
2019-03-02T17:40:54.611Z,13.60
2019-03-02T17:43:50.143Z,13.60
2019-03-02T17:46:51.779Z,13.60
2019-03-02T17:49:40.952Z,13.60
2019-03-02T17:52:29.080Z,13.60
2019-03-02T17:55:24.907Z,13.70
2019-03-02T17:58:13.475Z,13.70
2019-03-02T18:00:56.985Z,13.70
2019-03-02T18:03:50.625Z,13.70
2019-03-02T18:06:38.447Z,13.70
2019-03-02T18:09:31.747Z,13.70
2019-03-02T18:12:08.833Z,13.70
2019-03-02T18:14:44.333Z,13.70
2019-03-02T18:17:28.580Z,13.70
2019-03-02T18:19:57.972Z,13.70
2019-03-02T18:22:27.254Z,13.70
2019-03-02T18:24:56.630Z,13.70
2019-03-02T18:27:25.755Z,13.70
2019-03-02T18:29:55.109Z,13.70
2019-03-02T18:32:24.381Z,13.70
2019-03-02T18:34:56.826Z,13.70
2019-03-02T18:37:26.374Z,13.70
2019-03-02T18:39:58.162Z,13.70
2019-03-02T18:42:27.180Z,13.70
2019-03-02T18:45:00.556Z,13.70
2019-03-02T18:47:29.992Z,13.70
2019-03-02T18:50:24.985Z,13.70
2019-03-02T18:53:06.856Z,13.70
2019-03-02T18:55:36.081Z,13.70
2019-03-02T18:58:06.926Z,13.70
2019-03-02T19:00:42.289Z,13.70
2019-03-02T19:03:11.748Z,13.70
2019-03-02T19:05:40.993Z,13.70
2019-03-02T19:08:11.654Z,13.70
2019-03-02T19:10:43.287Z,13.70
2019-03-02T19:13:11.835Z,13.70
2019-03-02T19:15:41.202Z,13.80
2019-03-02T19:18:10.618Z,13.80
2019-03-02T19:20:42.204Z,13.80
2019-03-02T19:23:11.380Z,13.80
2019-03-02T19:25:40.491Z,13.80
2019-03-02T19:28:11.843Z,13.90
2019-03-02T19:30:41.020Z,13.90
2019-03-02T19:33:10.444Z,13.90
2019-03-02T19:35:39.443Z,13.90
2019-03-02T19:38:08.732Z,13.90
2019-03-02T19:40:38.304Z,13.90
2019-03-02T19:43:08.727Z,13.90
2019-03-02T19:45:37.820Z,13.80
2019-03-02T19:48:06.906Z,13.80
2019-03-02T19:50:36.034Z,13.70
2019-03-02T19:53:05.206Z,13.70
2019-03-02T19:55:34.337Z,13.60
2019-03-02T19:58:03.779Z,13.60
2019-03-02T20:00:32.936Z,13.60
2019-03-02T20:03:02.517Z,13.60
2019-03-02T20:05:32.730Z,13.70
2019-03-02T20:08:01.839Z,13.70
2019-03-02T20:10:30.966Z,13.70
2019-03-02T20:13:00.072Z,13.70
2019-03-02T20:15:29.281Z,13.70
2019-03-02T20:17:58.415Z,13.70
2019-03-02T20:20:27.499Z,13.70
2019-03-02T20:22:57.277Z,13.70
2019-03-02T20:25:26.653Z,13.70
2019-03-02T20:27:56.161Z,13.60
2019-03-02T20:30:26.290Z,13.60
2019-03-02T20:32:55.642Z,13.60
2019-03-02T20:35:24.773Z,13.60
2019-03-02T20:37:54.199Z,13.60
2019-03-02T20:40:23.301Z,13.50
2019-03-02T20:42:52.766Z,13.50
2019-03-02T20:45:22.751Z,13.60
2019-03-02T20:47:51.936Z,13.60
2019-03-02T20:50:21.155Z,13.70
2019-03-02T20:52:50.589Z,13.70
2019-03-02T20:55:19.764Z,13.70
2019-03-02T20:57:50.214Z,13.70
2019-03-02T21:00:22.667Z,13.70
2019-03-02T21:02:52.144Z,13.70
2019-03-02T21:05:21.740Z,13.70
2019-03-02T21:07:51.166Z,13.70
2019-03-02T21:10:21.410Z,13.80
2019-03-02T21:12:50.624Z,13.70
2019-03-02T21:15:23.964Z,13.70
2019-03-02T21:17:53.229Z,13.70
2019-03-02T21:20:22.421Z,13.70
2019-03-02T21:22:51.790Z,13.60
2019-03-02T21:25:21.541Z,13.50
2019-03-02T21:27:50.612Z,13.50
2019-03-02T21:30:19.833Z,13.50
2019-03-02T21:32:49.182Z,13.50
2019-03-02T21:35:18.302Z,13.50
2019-03-02T21:37:47.424Z,13.50
2019-03-02T21:40:18.749Z,13.50
2019-03-02T21:42:48.853Z,13.50
2019-03-02T21:45:19.068Z,13.50
2019-03-02T21:47:48.781Z,13.50
2019-03-02T21:50:20.698Z,13.50
2019-03-02T21:52:49.774Z,13.60
2019-03-02T21:55:18.985Z,13.60
2019-03-02T21:57:48.343Z,13.60
2019-03-02T22:00:20.551Z,13.70
2019-03-02T22:02:49.664Z,13.70
2019-03-02T22:05:19.005Z,13.70
2019-03-02T22:07:48.099Z,13.60
2019-03-02T22:10:20.249Z,13.60
2019-03-02T22:12:49.715Z,13.50
2019-03-02T22:15:18.890Z,13.40
2019-03-02T22:17:49.663Z,14.60
2019-03-02T22:20:18.752Z,13.20
2019-03-02T22:22:47.896Z,13.20
2019-03-02T22:25:17.608Z,13.10
2019-03-02T22:27:46.784Z,13.00
2019-03-02T22:30:18.445Z,13.00
2019-03-02T22:32:47.658Z,13.00
2019-03-02T22:35:16.826Z,13.00
2019-03-02T22:37:45.984Z,13.00
2019-03-02T22:40:16.763Z,12.90
2019-03-02T22:42:45.937Z,12.90
2019-03-02T22:45:16.004Z,12.90
2019-03-02T22:47:45.202Z,12.80
2019-03-02T22:50:16.648Z,12.80
2019-03-02T22:52:46.006Z,12.80
2019-03-02T22:55:15.795Z,12.80
2019-03-02T22:57:45.273Z,12.90
2019-03-02T23:01:04.842Z,13.00
2019-03-02T23:03:32.655Z,13.00
2019-03-02T23:06:01.743Z,13.10
2019-03-02T23:08:31.154Z,13.20
2019-03-02T23:11:00.508Z,13.20
2019-03-02T23:13:29.756Z,13.20
2019-03-02T23:15:59.217Z,13.30
2019-03-02T23:18:28.295Z,13.30
2019-03-02T23:20:57.380Z,13.30
2019-03-02T23:23:26.522Z,13.40
2019-03-02T23:25:55.993Z,13.40
2019-03-02T23:28:25.427Z,13.40
2019-03-02T23:30:54.450Z,13.40
2019-03-02T23:33:23.541Z,13.40
2019-03-02T23:35:52.985Z,14.70
2019-03-02T23:38:22.431Z,13.40
2019-03-02T23:40:51.557Z,13.40
2019-03-02T23:43:20.933Z,13.40
2019-03-02T23:45:49.953Z,13.30
2019-03-02T23:48:19.463Z,13.30
2019-03-02T23:50:48.565Z,13.20
2019-03-02T23:53:17.723Z,13.10
2019-03-02T23:55:47.209Z,13.00
2019-03-02T23:58:17.734Z,13.00
